PWSweather.com
Personal Weather Stations
Station Observations
SBERGENWX
Wood Ridge, NJ 07075

Wood Ridge, NJ 07075

Lat: 40.851667, Lon: -74.088131

Elevation: 177

Station Type: Davis Vantage Vue

http://201weather.com/

Latest ConditionsUpdated 7:45:01 PM EDT Wednesday, Aug 21, 2019
Currently Today's Max Today's Min Today's Average
Temperature 79.0°F26.1°C 88.5°F31.4°C 75.4°F24.1°C 80.4°F26.9°C
Dew Point 69.6°F20.9°C 75.4°F24.1°C 69.6°F20.9°C 72.6°F22.6°C
Winds 2.3 mph E3.7 kmh E 4.6 mph -7.4 kmh - - 2.0 mph 3.2 kmh
Wind Gusts 2.3 mph3.7 kmh 10.4 mph16.7 kmh - -
Humidity 73% 92% 62% 78%
Pressure 29.84 in1010.5 mb 30.02 in1016.6 mb 29.83 in1010.2 mb -
Precipitation - 0.05 in1.3 mm - -
Hour Temp Dew Point Humidity Winds Wind Gusts Pressure Precip Precip Rate Daily Precip Total
07:45 PM 79.0°F26.1°C 69.6°F20.9°C 73% 2.3 mph E3.7 kmh E 2.3 mph3.7 kmh 29.84 in1010.5 mb - 0.00 in0.0 mm 0.05 in1.3 mm
07:30 PM 79.4°F26.3°C 69.6°F20.9°C 72% 2.3 mph ENE3.7 kmh ENE 3.5 mph5.6 kmh 29.84 in1010.5 mb - 0.00 in0.0 mm 0.05 in1.3 mm
07:15 PM 80.6°F27.0°C 70.7°F21.5°C 72% 1.2 mph E1.9 kmh E 2.3 mph3.7 kmh 29.85 in1010.8 mb - 0.00 in0.0 mm 0.05 in1.3 mm
07:00 PM 81.5°F27.5°C 71.6°F22.0°C 72% 3.5 mph NE5.6 kmh NE 4.6 mph7.4 kmh 29.84 in1010.5 mb - 0.00 in0.0 mm 0.05 in1.3 mm
06:45 PM 82.6°F28.1°C 72.2°F22.3°C 71% Calm Calm 1.2 mph1.9 kmh 29.84 in1010.5 mb - 0.00 in0.0 mm 0.05 in1.3 mm
06:30 PM 81.8°F27.7°C 72.3°F22.4°C 73% Calm Calm 2.3 mph3.7 kmh 29.83 in1010.2 mb - 0.00 in0.0 mm 0.05 in1.3 mm
06:15 PM 81.7°F27.6°C 72.6°F22.6°C 74% 3.5 mph E5.6 kmh E 4.6 mph7.4 kmh 29.84 in1010.5 mb - 0.00 in0.0 mm 0.05 in1.3 mm
06:00 PM 82.0°F27.8°C 72.9°F22.7°C 74% 4.6 mph SE7.4 kmh SE 8.1 mph13.0 kmh 29.84 in1010.5 mb - 0.00 in0.0 mm 0.05 in1.3 mm
05:45 PM 81.5°F27.5°C 74.8°F23.8°C 80% 4.6 mph SSW7.4 kmh SSW 10.4 mph16.7 kmh 29.84 in1010.5 mb - 0.00 in0.0 mm 0.05 in1.3 mm
05:30 PM 79.3°F26.3°C 73.4°F23.0°C 82% 1.2 mph SSW1.9 kmh SSW 3.5 mph5.6 kmh 29.84 in1010.5 mb - 0.04 in1.0 mm 0.05 in1.3 mm
05:15 PM 78.8°F26.0°C 73.2°F22.9°C 83% Calm Calm -- 29.85 in1010.8 mb - 0.05 in1.3 mm 0.05 in1.3 mm
05:00 PM 79.0°F26.1°C 72.7°F22.6°C 81% Calm Calm 1.2 mph1.9 kmh 29.84 in1010.5 mb - 0.05 in1.3 mm 0.05 in1.3 mm
04:45 PM 80.0°F26.7°C 75.1°F23.9°C 85% Calm Calm 1.2 mph1.9 kmh 29.85 in1010.8 mb - 0.05 in1.3 mm 0.05 in1.3 mm
04:30 PM 84.2°F29.0°C 75.4°F24.1°C 75% 2.3 mph S3.7 kmh S 2.3 mph3.7 kmh 29.83 in1010.2 mb - 0.02 in0.5 mm 0.02 in0.5 mm
04:15 PM 86.1°F30.1°C 73.4°F23.0°C 66% 2.3 mph S3.7 kmh S 3.5 mph5.6 kmh 29.85 in1010.8 mb - 0.00 in0.0 mm 0.00 in0.0 mm
04:00 PM 86.5°F30.3°C 73.3°F22.9°C 65% 2.3 mph S3.7 kmh S 4.6 mph7.4 kmh 29.85 in1010.8 mb - 0.00 in0.0 mm 0.00 in0.0 mm
03:45 PM 86.8°F30.4°C 73.2°F22.9°C 64% 2.3 mph S3.7 kmh S 3.5 mph5.6 kmh 29.85 in1010.8 mb - 0.00 in0.0 mm 0.00 in0.0 mm
03:30 PM 86.8°F30.4°C 73.2°F22.9°C 64% 3.5 mph SW5.6 kmh SW 5.8 mph9.3 kmh 29.86 in1011.2 mb - 0.00 in0.0 mm 0.00 in0.0 mm
03:15 PM 87.1°F30.6°C 73.4°F23.0°C 64% 2.3 mph S3.7 kmh S 3.5 mph5.6 kmh 29.86 in1011.2 mb - 0.00 in0.0 mm 0.00 in0.0 mm
03:00 PM 87.5°F30.8°C 73.3°F22.9°C 63% 4.6 mph S7.4 kmh S 5.8 mph9.3 kmh 29.85 in1010.8 mb - 0.00 in0.0 mm 0.00 in0.0 mm
02:45 PM 88.1°F31.2°C 73.4°F23.0°C 62% 3.5 mph SSW5.6 kmh SSW 6.9 mph11.1 kmh 29.86 in1011.2 mb - 0.00 in0.0 mm 0.00 in0.0 mm
02:30 PM 88.5°F31.4°C 73.9°F23.3°C 62% 3.5 mph SSE5.6 kmh SSE 6.9 mph11.1 kmh 29.86 in1011.2 mb - 0.00 in0.0 mm 0.00 in0.0 mm
02:15 PM 88.0°F31.1°C 73.3°F22.9°C 62% 4.6 mph S7.4 kmh S 8.1 mph13.0 kmh 29.87 in1011.5 mb - 0.00 in0.0 mm 0.00 in0.0 mm
02:00 PM 86.7°F30.4°C 73.6°F23.1°C 65% 3.5 mph SSE5.6 kmh SSE 4.6 mph7.4 kmh 29.87 in1011.5 mb - 0.00 in0.0 mm 0.00 in0.0 mm
01:45 PM 86.8°F30.4°C 73.2°F22.9°C 64% 3.5 mph SSE5.6 kmh SSE 5.8 mph9.3 kmh 29.88 in1011.9 mb - 0.00 in0.0 mm 0.00 in0.0 mm
01:30 PM 86.3°F30.2°C 73.6°F23.1°C 66% 3.5 mph ESE5.6 kmh ESE 4.6 mph7.4 kmh 29.88 in1011.9 mb - 0.00 in0.0 mm 0.00 in0.0 mm
01:15 PM 86.0°F30.0°C 73.3°F22.9°C 66% 3.5 mph ESE5.6 kmh ESE 5.8 mph9.3 kmh 29.89 in1012.2 mb - 0.00 in0.0 mm 0.00 in0.0 mm
01:00 PM 84.6°F29.2°C 72.9°F22.7°C 68% 2.3 mph SE3.7 kmh SE 3.5 mph5.6 kmh 29.89 in1012.2 mb - 0.00 in0.0 mm 0.00 in0.0 mm
12:45 PM 83.7°F28.7°C 73.3°F22.9°C 71% 4.6 mph E7.4 kmh E 8.1 mph13.0 kmh 29.91 in1012.9 mb - 0.00 in0.0 mm 0.00 in0.0 mm
12:30 PM 82.7°F28.2°C 72.7°F22.6°C 72% 3.5 mph SE5.6 kmh SE 6.9 mph11.1 kmh 29.92 in1013.2 mb - 0.00 in0.0 mm 0.00 in0.0 mm
12:15 PM 83.1°F28.4°C 72.3°F22.4°C 70% 3.5 mph SE5.6 kmh SE 5.8 mph9.3 kmh 29.93 in1013.5 mb - 0.00 in0.0 mm 0.00 in0.0 mm
12:00 PM 83.1°F28.4°C 71.9°F22.2°C 69% 4.6 mph SW7.4 kmh SW 5.8 mph9.3 kmh 29.93 in1013.5 mb - 0.00 in0.0 mm 0.00 in0.0 mm
11:45 AM 83.2°F28.4°C 71.5°F21.9°C 68% 4.6 mph SW7.4 kmh SW 10.4 mph16.7 kmh 29.93 in1013.5 mb - 0.00 in0.0 mm 0.00 in0.0 mm
11:30 AM 84.0°F28.9°C 71.4°F21.9°C 66% 2.3 mph S3.7 kmh S 4.6 mph7.4 kmh 29.93 in1013.5 mb - 0.00 in0.0 mm 0.00 in0.0 mm
11:15 AM 85.4°F29.7°C 71.4°F21.9°C 63% 4.6 mph SSW7.4 kmh SSW 9.2 mph14.8 kmh 29.92 in1013.2 mb - 0.00 in0.0 mm 0.00 in0.0 mm
11:00 AM 85.0°F29.4°C 71.4°F21.9°C 64% 2.3 mph S3.7 kmh S 3.5 mph5.6 kmh 29.93 in1013.5 mb - 0.00 in0.0 mm 0.00 in0.0 mm
10:45 AM 85.8°F29.9°C 71.7°F22.1°C 63% 2.3 mph SSE3.7 kmh SSE 5.8 mph9.3 kmh 29.93 in1013.5 mb - 0.00 in0.0 mm 0.00 in0.0 mm
10:30 AM 85.1°F29.5°C 72.4°F22.4°C 66% 4.6 mph SE7.4 kmh SE 8.1 mph13.0 kmh 29.93 in1013.5 mb - 0.00 in0.0 mm 0.00 in0.0 mm
10:15 AM 84.7°F29.3°C 73.4°F23.0°C 69% 3.5 mph SE5.6 kmh SE 4.6 mph7.4 kmh 29.93 in1013.5 mb - 0.00 in0.0 mm 0.00 in0.0 mm
10:00 AM 84.4°F29.1°C 72.2°F22.3°C 67% 3.5 mph SSE5.6 kmh SSE 5.8 mph9.3 kmh 29.94 in1013.9 mb - 0.00 in0.0 mm 0.00 in0.0 mm
09:45 AM 82.7°F28.2°C 73.6°F23.1°C 74% 1.2 mph S1.9 kmh S 2.3 mph3.7 kmh 29.94 in1013.9 mb - 0.00 in0.0 mm 0.00 in0.0 mm
09:30 AM 82.3°F27.9°C 74.0°F23.3°C 76% 3.5 mph SE5.6 kmh SE 3.5 mph5.6 kmh 29.94 in1013.9 mb - 0.00 in0.0 mm 0.00 in0.0 mm
09:15 AM 80.8°F27.1°C 74.7°F23.7°C 82% 3.5 mph SE5.6 kmh SE 4.6 mph7.4 kmh 29.95 in1014.2 mb - 0.00 in0.0 mm 0.00 in0.0 mm
09:00 AM 79.9°F26.6°C 74.3°F23.5°C 83% 2.3 mph SSE3.7 kmh SSE 4.6 mph7.4 kmh 29.95 in1014.2 mb - 0.00 in0.0 mm 0.00 in0.0 mm
08:45 AM 78.8°F26.0°C 74.3°F23.5°C 86% 2.3 mph SE3.7 kmh SE 3.5 mph5.6 kmh 29.96 in1014.6 mb - 0.00 in0.0 mm 0.00 in0.0 mm
08:30 AM 78.5°F25.8°C 75.0°F23.9°C 89% Calm Calm 2.3 mph3.7 kmh 29.96 in1014.6 mb - 0.00 in0.0 mm 0.00 in0.0 mm
08:15 AM 77.2°F25.1°C 74.0°F23.3°C 90% 1.2 mph SE1.9 kmh SE 3.5 mph5.6 kmh 29.97 in1014.9 mb - 0.00 in0.0 mm 0.00 in0.0 mm
08:00 AM 76.9°F24.9°C 74.1°F23.4°C 91% 3.5 mph E5.6 kmh E 5.8 mph9.3 kmh 29.96 in1014.6 mb - 0.00 in0.0 mm 0.00 in0.0 mm
07:45 AM 76.7°F24.8°C 74.2°F23.4°C 92% 1.2 mph SE1.9 kmh SE 2.3 mph3.7 kmh 29.97 in1014.9 mb - 0.00 in0.0 mm 0.00 in0.0 mm
07:30 AM 76.5°F24.7°C 74.0°F23.3°C 92% 2.3 mph SE3.7 kmh SE 3.5 mph5.6 kmh 29.97 in1014.9 mb - 0.00 in0.0 mm 0.00 in0.0 mm
07:15 AM 76.2°F24.6°C 73.7°F23.2°C 92% Calm Calm -- 29.97 in1014.9 mb - 0.00 in0.0 mm 0.00 in0.0 mm
07:00 AM 75.8°F24.3°C 73.3°F22.9°C 92% Calm Calm 1.2 mph1.9 kmh 29.96 in1014.6 mb - 0.00 in0.0 mm 0.00 in0.0 mm
06:45 AM 75.7°F24.3°C 73.2°F22.9°C 92% Calm Calm -- 29.96 in1014.6 mb - 0.00 in0.0 mm 0.00 in0.0 mm
06:30 AM 75.8°F24.3°C 73.3°F22.9°C 92% Calm Calm -- 29.96 in1014.6 mb - 0.00 in0.0 mm 0.00 in0.0 mm
06:15 AM 75.9°F24.4°C 73.4°F23.0°C 92% Calm Calm -- 29.96 in1014.6 mb - 0.00 in0.0 mm 0.00 in0.0 mm
06:00 AM 75.8°F24.3°C 73.3°F22.9°C 92% Calm Calm -- 29.96 in1014.6 mb - 0.00 in0.0 mm 0.00 in0.0 mm
05:45 AM 75.8°F24.3°C 73.3°F22.9°C 92% 1.2 mph SSE1.9 kmh SSE 1.2 mph1.9 kmh 29.96 in1014.6 mb - 0.00 in0.0 mm 0.00 in0.0 mm
05:30 AM 75.7°F24.3°C 73.2°F22.9°C 92% Calm Calm 1.2 mph1.9 kmh 29.96 in1014.6 mb - 0.00 in0.0 mm 0.00 in0.0 mm
05:15 AM 75.6°F24.2°C 73.1°F22.8°C 92% Calm Calm -- 29.96 in1014.6 mb - 0.00 in0.0 mm 0.00 in0.0 mm
05:00 AM 75.4°F24.1°C 72.9°F22.7°C 92% Calm Calm -- 29.96 in1014.6 mb - 0.00 in0.0 mm 0.00 in0.0 mm
04:45 AM 75.6°F24.2°C 73.1°F22.8°C 92% 1.2 mph SSE1.9 kmh SSE 2.3 mph3.7 kmh 29.97 in1014.9 mb - 0.00 in0.0 mm 0.00 in0.0 mm
04:30 AM 75.7°F24.3°C 72.9°F22.7°C 91% 1.2 mph SSE1.9 kmh SSE 1.2 mph1.9 kmh 29.97 in1014.9 mb - 0.00 in0.0 mm 0.00 in0.0 mm
04:15 AM 75.8°F24.3°C 72.7°F22.6°C 90% 1.2 mph SE1.9 kmh SE 2.3 mph3.7 kmh 29.98 in1015.2 mb - 0.00 in0.0 mm 0.00 in0.0 mm
04:00 AM 75.7°F24.3°C 72.6°F22.6°C 90% 1.2 mph SE1.9 kmh SE 2.3 mph3.7 kmh 29.99 in1015.6 mb - 0.00 in0.0 mm 0.00 in0.0 mm
03:45 AM 75.5°F24.2°C 72.4°F22.4°C 90% 1.2 mph SE1.9 kmh SE 2.3 mph3.7 kmh 30.00 in1015.9 mb - 0.00 in0.0 mm 0.00 in0.0 mm
03:30 AM 75.4°F24.1°C 72.3°F22.4°C 90% 1.2 mph SE1.9 kmh SE 1.2 mph1.9 kmh 30.00 in1015.9 mb - 0.00 in0.0 mm 0.00 in0.0 mm
03:15 AM 75.5°F24.2°C 72.0°F22.2°C 89% 1.2 mph SE1.9 kmh SE 1.2 mph1.9 kmh 30.00 in1015.9 mb - 0.00 in0.0 mm 0.00 in0.0 mm
03:00 AM 75.8°F24.3°C 71.7°F22.1°C 87% Calm Calm 1.2 mph1.9 kmh 30.01 in1016.3 mb - 0.00 in0.0 mm 0.00 in0.0 mm
02:45 AM 76.0°F24.4°C 71.2°F21.8°C 85% 1.2 mph SSE1.9 kmh SSE 2.3 mph3.7 kmh 30.01 in1016.3 mb - 0.00 in0.0 mm 0.00 in0.0 mm
02:30 AM 76.2°F24.6°C 71.0°F21.7°C 84% 1.2 mph SE1.9 kmh SE 2.3 mph3.7 kmh 30.01 in1016.3 mb - 0.00 in0.0 mm 0.00 in0.0 mm
02:15 AM 76.5°F24.7°C 70.9°F21.6°C 83% 1.2 mph SSE1.9 kmh SSE 1.2 mph1.9 kmh 30.02 in1016.6 mb - 0.00 in0.0 mm 0.00 in0.0 mm
02:00 AM 76.6°F24.8°C 70.4°F21.3°C 81% Calm Calm 1.2 mph1.9 kmh 30.02 in1016.6 mb - 0.00 in0.0 mm 0.00 in0.0 mm
01:45 AM 76.6°F24.8°C 70.3°F21.3°C 81% 1.2 mph SSE1.9 kmh SSE 1.2 mph1.9 kmh 30.02 in1016.6 mb - 0.00 in0.0 mm 0.00 in0.0 mm
01:30 AM 76.4°F24.7°C 70.1°F21.2°C 81% Calm Calm 1.2 mph1.9 kmh 30.02 in1016.6 mb - 0.00 in0.0 mm 0.00 in0.0 mm
01:15 AM 76.4°F24.7°C 70.1°F21.2°C 81% 1.2 mph SE1.9 kmh SE 1.2 mph1.9 kmh 30.02 in1016.6 mb - 0.00 in0.0 mm 0.00 in0.0 mm
01:00 AM 76.3°F24.6°C 70.1°F21.2°C 81% Calm Calm 1.2 mph1.9 kmh 30.02 in1016.6 mb - 0.00 in0.0 mm 0.00 in0.0 mm
12:45 AM 76.5°F24.7°C 70.2°F21.2°C 81% 1.2 mph SE1.9 kmh SE 1.2 mph1.9 kmh 30.02 in1016.6 mb - 0.00 in0.0 mm 0.00 in0.0 mm
12:30 AM 76.7°F24.8°C 70.0°F21.1°C 80% 2.3 mph SE3.7 kmh SE 3.5 mph5.6 kmh 30.02 in1016.6 mb - 0.00 in0.0 mm 0.00 in0.0 mm
12:15 AM 76.8°F24.9°C 70.2°F21.2°C 80% 2.3 mph SE3.7 kmh SE 2.3 mph3.7 kmh 30.02 in1016.6 mb - 0.00 in0.0 mm 0.00 in0.0 mm
12:00 AM 77.0°F25.0°C 70.0°F21.1°C 79% 2.3 mph SE3.7 kmh SE 2.3 mph3.7 kmh 30.02 in1016.6 mb - 0.00 in0.0 mm 0.00 in0.0 mm